sensor_id;sensor_type;location;lat;lon;timestamp;P1;durP1;ratioP1;P2;durP2;ratioP2
13580;SDS011;6861;46.170;7.222;2022-08-03T00:01:44;3.22;;;1.90;;
13580;SDS011;6861;46.170;7.222;2022-08-03T00:04:10;1.90;;;1.70;;
13580;SDS011;6861;46.170;7.222;2022-08-03T00:06:37;2.67;;;1.98;;
13580;SDS011;6861;46.170;7.222;2022-08-03T00:09:04;2.03;;;1.83;;
13580;SDS011;6861;46.170;7.222;2022-08-03T00:11:31;2.17;;;1.73;;
13580;SDS011;6861;46.170;7.222;2022-08-03T00:13:59;2.53;;;1.90;;
13580;SDS011;6861;46.170;7.222;2022-08-03T00:16:27;2.00;;;1.80;;
13580;SDS011;6861;46.170;7.222;2022-08-03T00:18:54;3.75;;;1.67;;
13580;SDS011;6861;46.170;7.222;2022-08-03T00:21:21;2.30;;;1.80;;
13580;SDS011;6861;46.170;7.222;2022-08-03T00:23:48;1.70;;;1.60;;
13580;SDS011;6861;46.170;7.222;2022-08-03T00:26:15;3.45;;;1.90;;
13580;SDS011;6861;46.170;7.222;2022-08-03T00:28:42;2.80;;;1.92;;
13580;SDS011;6861;46.170;7.222;2022-08-03T00:31:08;2.00;;;1.70;;
13580;SDS011;6861;46.170;7.222;2022-08-03T00:33:37;3.20;;;1.75;;
13580;SDS011;6861;46.170;7.222;2022-08-03T00:36:04;1.92;;;1.73;;
13580;SDS011;6861;46.170;7.222;2022-08-03T00:38:31;1.88;;;1.63;;
13580;SDS011;6861;46.170;7.222;2022-08-03T00:40:58;3.28;;;1.73;;
13580;SDS011;6861;46.170;7.222;2022-08-03T00:43:25;2.13;;;1.70;;
13580;SDS011;6861;46.170;7.222;2022-08-03T00:45:52;1.88;;;1.50;;
13580;SDS011;6861;46.170;7.222;2022-08-03T00:48:19;2.35;;;1.52;;
13580;SDS011;6861;46.170;7.222;2022-08-03T00:50:48;2.47;;;1.40;;
13580;SDS011;6861;46.170;7.222;2022-08-03T00:53:15;1.75;;;1.55;;
13580;SDS011;6861;46.170;7.222;2022-08-03T00:55:43;2.03;;;1.73;;
13580;SDS011;6861;46.170;7.222;2022-08-03T00:58:10;3.42;;;1.80;;
13580;SDS011;6861;46.170;7.222;2022-08-03T01:00:38;2.45;;;1.55;;
13580;SDS011;6861;46.170;7.222;2022-08-03T01:03:06;2.58;;;1.52;;
13580;SDS011;6861;46.170;7.222;2022-08-03T01:05:35;3.90;;;1.70;;
13580;SDS011;6861;46.170;7.222;2022-08-03T01:08:12;3.33;;;1.88;;
13580;SDS011;6861;46.170;7.222;2022-08-03T01:10:49;1.60;;;1.50;;
13580;SDS011;6861;46.170;7.222;2022-08-03T01:13:26;2.42;;;1.50;;
13580;SDS011;6861;46.170;7.222;2022-08-03T01:15:58;2.38;;;1.73;;
13580;SDS011;6861;46.170;7.222;2022-08-03T01:18:30;1.95;;;1.70;;
13580;SDS011;6861;46.170;7.222;2022-08-03T01:21:06;1.73;;;1.50;;
13580;SDS011;6861;46.170;7.222;2022-08-03T01:29:39;2.35;;;1.73;;
13580;SDS011;6861;46.170;7.222;2022-08-03T01:32:17;2.05;;;1.77;;
13580;SDS011;6861;46.170;7.222;2022-08-03T01:34:47;1.73;;;1.63;;
13580;SDS011;6861;46.170;7.222;2022-08-03T01:37:20;2.22;;;1.65;;
13580;SDS011;6861;46.170;7.222;2022-08-03T01:39:52;2.15;;;1.70;;
13580;SDS011;6861;46.170;7.222;2022-08-03T01:42:22;1.92;;;1.70;;
13580;SDS011;6861;46.170;7.222;2022-08-03T01:44:52;3.75;;;1.70;;
13580;SDS011;6861;46.170;7.222;2022-08-03T01:47:21;3.75;;;1.90;;
13580;SDS011;6861;46.170;7.222;2022-08-03T01:49:50;2.50;;;1.77;;
13580;SDS011;6861;46.170;7.222;2022-08-03T01:52:21;1.73;;;1.63;;
13580;SDS011;6861;46.170;7.222;2022-08-03T01:54:50;1.98;;;1.70;;
13580;SDS011;6861;46.170;7.222;2022-08-03T01:57:18;3.20;;;1.80;;
13580;SDS011;6861;46.170;7.222;2022-08-03T01:59:48;2.72;;;1.83;;
13580;SDS011;6861;46.170;7.222;2022-08-03T02:02:18;2.42;;;1.77;;
13580;SDS011;6861;46.170;7.222;2022-08-03T02:04:47;1.58;;;1.48;;
13580;SDS011;6861;46.170;7.222;2022-08-03T02:07:15;2.25;;;1.88;;
13580;SDS011;6861;46.170;7.222;2022-08-03T02:09:43;2.10;;;1.45;;
13580;SDS011;6861;46.170;7.222;2022-08-03T02:12:14;4.30;;;1.88;;
13580;SDS011;6861;46.170;7.222;2022-08-03T02:14:42;2.30;;;1.60;;
13580;SDS011;6861;46.170;7.222;2022-08-03T02:17:12;3.38;;;2.08;;
13580;SDS011;6861;46.170;7.222;2022-08-03T02:19:42;1.88;;;1.60;;
13580;SDS011;6861;46.170;7.222;2022-08-03T02:22:11;3.20;;;1.70;;
13580;SDS011;6861;46.170;7.222;2022-08-03T02:24:39;2.30;;;1.85;;
13580;SDS011;6861;46.170;7.222;2022-08-03T02:27:07;2.33;;;1.63;;
13580;SDS011;6861;46.170;7.222;2022-08-03T02:29:41;2.63;;;1.70;;
13580;SDS011;6861;46.170;7.222;2022-08-03T02:32:12;1.95;;;1.70;;
13580;SDS011;6861;46.170;7.222;2022-08-03T02:34:45;4.25;;;1.88;;
13580;SDS011;6861;46.170;7.222;2022-08-03T02:37:14;3.13;;;1.83;;
13580;SDS011;6861;46.170;7.222;2022-08-03T02:39:44;1.83;;;1.70;;
13580;SDS011;6861;46.170;7.222;2022-08-03T02:42:13;2.47;;;1.80;;
13580;SDS011;6861;46.170;7.222;2022-08-03T02:44:43;3.20;;;1.83;;
13580;SDS011;6861;46.170;7.222;2022-08-03T02:47:13;3.70;;;1.80;;
13580;SDS011;6861;46.170;7.222;2022-08-03T02:49:46;1.98;;;1.77;;
13580;SDS011;6861;46.170;7.222;2022-08-03T02:52:15;2.03;;;1.83;;
13580;SDS011;6861;46.170;7.222;2022-08-03T02:54:43;4.38;;;1.80;;
13580;SDS011;6861;46.170;7.222;2022-08-03T02:57:14;2.10;;;1.90;;
13580;SDS011;6861;46.170;7.222;2022-08-03T02:59:43;3.28;;;1.73;;
13580;SDS011;6861;46.170;7.222;2022-08-03T03:02:11;2.65;;;1.58;;
13580;SDS011;6861;46.170;7.222;2022-08-03T03:04:40;2.67;;;1.60;;
13580;SDS011;6861;46.170;7.222;2022-08-03T03:07:11;2.47;;;1.85;;
13580;SDS011;6861;46.170;7.222;2022-08-03T03:09:39;2.83;;;1.50;;
13580;SDS011;6861;46.170;7.222;2022-08-03T03:12:06;1.75;;;1.60;;
13580;SDS011;6861;46.170;7.222;2022-08-03T03:14:35;2.92;;;1.60;;
13580;SDS011;6861;46.170;7.222;2022-08-03T03:17:03;2.10;;;1.90;;
13580;SDS011;6861;46.170;7.222;2022-08-03T03:19:32;5.15;;;2.03;;
13580;SDS011;6861;46.170;7.222;2022-08-03T03:22:00;2.55;;;1.90;;
13580;SDS011;6861;46.170;7.222;2022-08-03T03:24:30;1.98;;;1.77;;
13580;SDS011;6861;46.170;7.222;2022-08-03T03:26:58;2.80;;;1.98;;
13580;SDS011;6861;46.170;7.222;2022-08-03T03:29:25;2.83;;;1.50;;
13580;SDS011;6861;46.170;7.222;2022-08-03T03:31:53;2.90;;;1.80;;
13580;SDS011;6861;46.170;7.222;2022-08-03T03:34:21;2.00;;;1.80;;
13580;SDS011;6861;46.170;7.222;2022-08-03T03:36:48;2.20;;;2.00;;
13580;SDS011;6861;46.170;7.222;2022-08-03T03:39:15;2.42;;;1.90;;
13580;SDS011;6861;46.170;7.222;2022-08-03T03:41:44;2.35;;;1.83;;
13580;SDS011;6861;46.170;7.222;2022-08-03T03:44:11;2.60;;;1.90;;
13580;SDS011;6861;46.170;7.222;2022-08-03T03:46:38;2.90;;;2.15;;
13580;SDS011;6861;46.170;7.222;2022-08-03T03:49:05;3.30;;;2.00;;
13580;SDS011;6861;46.170;7.222;2022-08-03T03:51:32;1.90;;;1.70;;
13580;SDS011;6861;46.170;7.222;2022-08-03T03:54:00;3.80;;;1.73;;
13580;SDS011;6861;46.170;7.222;2022-08-03T03:56:28;3.38;;;2.00;;
13580;SDS011;6861;46.170;7.222;2022-08-03T03:58:57;1.98;;;1.65;;
13580;SDS011;6861;46.170;7.222;2022-08-03T04:01:23;3.20;;;1.80;;
13580;SDS011;6861;46.170;7.222;2022-08-03T04:03:50;4.07;;;1.83;;
13580;SDS011;6861;46.170;7.222;2022-08-03T04:06:17;3.90;;;2.00;;
13580;SDS011;6861;46.170;7.222;2022-08-03T04:09:04;2.00;;;1.80;;
13580;SDS011;6861;46.170;7.222;2022-08-03T04:11:52;2.03;;;1.60;;
13580;SDS011;6861;46.170;7.222;2022-08-03T04:14:22;2.50;;;1.90;;
13580;SDS011;6861;46.170;7.222;2022-08-03T04:16:54;3.15;;;1.90;;
13580;SDS011;6861;46.170;7.222;2022-08-03T04:19:25;2.13;;;1.73;;
13580;SDS011;6861;46.170;7.222;2022-08-03T04:21:57;2.40;;;1.83;;
13580;SDS011;6861;46.170;7.222;2022-08-03T04:24:31;2.63;;;2.03;;
13580;SDS011;6861;46.170;7.222;2022-08-03T04:27:01;2.58;;;2.03;;
13580;SDS011;6861;46.170;7.222;2022-08-03T04:29:32;2.90;;;2.00;;
13580;SDS011;6861;46.170;7.222;2022-08-03T04:32:01;2.88;;;1.90;;
13580;SDS011;6861;46.170;7.222;2022-08-03T04:34:30;3.00;;;2.13;;
13580;SDS011;6861;46.170;7.222;2022-08-03T04:36:58;2.42;;;2.10;;
13580;SDS011;6861;46.170;7.222;2022-08-03T04:39:28;2.35;;;1.98;;
13580;SDS011;6861;46.170;7.222;2022-08-03T04:41:57;3.38;;;2.08;;
13580;SDS011;6861;46.170;7.222;2022-08-03T04:44:28;2.90;;;2.20;;
13580;SDS011;6861;46.170;7.222;2022-08-03T04:46:58;3.80;;;2.00;;
13580;SDS011;6861;46.170;7.222;2022-08-03T04:49:25;3.35;;;2.10;;
13580;SDS011;6861;46.170;7.222;2022-08-03T04:51:53;3.03;;;2.15;;
13580;SDS011;6861;46.170;7.222;2022-08-03T04:54:21;4.20;;;2.17;;
13580;SDS011;6861;46.170;7.222;2022-08-03T04:56:48;2.55;;;1.80;;
13580;SDS011;6861;46.170;7.222;2022-08-03T04:59:14;3.50;;;2.10;;
13580;SDS011;6861;46.170;7.222;2022-08-03T05:01:42;2.85;;;2.30;;
13580;SDS011;6861;46.170;7.222;2022-08-03T05:04:11;2.30;;;2.10;;
13580;SDS011;6861;46.170;7.222;2022-08-03T05:06:38;2.53;;;2.30;;
13580;SDS011;6861;46.170;7.222;2022-08-03T05:09:05;3.50;;;2.30;;
13580;SDS011;6861;46.170;7.222;2022-08-03T05:11:32;3.95;;;2.40;;
13580;SDS011;6861;46.170;7.222;2022-08-03T05:13:59;3.38;;;2.40;;
13580;SDS011;6861;46.170;7.222;2022-08-03T05:16:26;3.72;;;2.38;;
13580;SDS011;6861;46.170;7.222;2022-08-03T05:18:53;5.72;;;2.50;;
13580;SDS011;6861;46.170;7.222;2022-08-03T05:21:21;2.22;;;2.00;;
13580;SDS011;6861;46.170;7.222;2022-08-03T05:23:48;3.25;;;2.20;;
13580;SDS011;6861;46.170;7.222;2022-08-03T05:26:15;3.47;;;2.40;;
13580;SDS011;6861;46.170;7.222;2022-08-03T05:28:42;4.57;;;2.50;;
13580;SDS011;6861;46.170;7.222;2022-08-03T05:31:09;7.25;;;2.50;;
13580;SDS011;6861;46.170;7.222;2022-08-03T05:33:37;3.05;;;2.40;;
13580;SDS011;6861;46.170;7.222;2022-08-03T05:36:05;2.72;;;2.15;;
13580;SDS011;6861;46.170;7.222;2022-08-03T05:38:33;2.90;;;2.33;;
13580;SDS011;6861;46.170;7.222;2022-08-03T05:41:00;3.55;;;2.38;;
13580;SDS011;6861;46.170;7.222;2022-08-03T05:43:28;4.00;;;2.40;;
13580;SDS011;6861;46.170;7.222;2022-08-03T05:45:56;5.15;;;2.25;;
13580;SDS011;6861;46.170;7.222;2022-08-03T05:48:23;3.78;;;2.30;;
13580;SDS011;6861;46.170;7.222;2022-08-03T05:50:50;6.05;;;2.50;;
13580;SDS011;6861;46.170;7.222;2022-08-03T05:53:17;3.53;;;2.45;;
13580;SDS011;6861;46.170;7.222;2022-08-03T05:55:45;5.70;;;2.50;;
13580;SDS011;6861;46.170;7.222;2022-08-03T05:58:12;5.15;;;2.40;;
13580;SDS011;6861;46.170;7.222;2022-08-03T06:00:39;3.08;;;2.40;;
13580;SDS011;6861;46.170;7.222;2022-08-03T06:03:06;5.40;;;2.60;;
13580;SDS011;6861;46.170;7.222;2022-08-03T06:05:33;5.03;;;2.67;;
13580;SDS011;6861;46.170;7.222;2022-08-03T06:08:00;3.08;;;2.40;;
13580;SDS011;6861;46.170;7.222;2022-08-03T06:10:27;5.20;;;2.45;;
13580;SDS011;6861;46.170;7.222;2022-08-03T06:12:56;2.45;;;2.08;;
13580;SDS011;6861;46.170;7.222;2022-08-03T06:15:23;5.25;;;2.40;;
13580;SDS011;6861;46.170;7.222;2022-08-03T06:17:50;4.15;;;2.35;;
13580;SDS011;6861;46.170;7.222;2022-08-03T06:20:18;3.85;;;2.30;;
13580;SDS011;6861;46.170;7.222;2022-08-03T06:22:46;5.20;;;2.30;;
13580;SDS011;6861;46.170;7.222;2022-08-03T06:25:13;4.88;;;2.55;;
13580;SDS011;6861;46.170;7.222;2022-08-03T06:27:40;2.92;;;2.42;;
13580;SDS011;6861;46.170;7.222;2022-08-03T06:30:09;3.65;;;2.17;;
13580;SDS011;6861;46.170;7.222;2022-08-03T06:32:38;4.13;;;2.40;;
13580;SDS011;6861;46.170;7.222;2022-08-03T06:35:05;4.78;;;2.50;;
13580;SDS011;6861;46.170;7.222;2022-08-03T06:37:40;4.05;;;2.10;;
13580;SDS011;6861;46.170;7.222;2022-08-03T06:40:09;3.17;;;2.38;;
13580;SDS011;6861;46.170;7.222;2022-08-03T06:42:37;2.72;;;1.95;;
13580;SDS011;6861;46.170;7.222;2022-08-03T06:45:04;3.28;;;1.90;;
13580;SDS011;6861;46.170;7.222;2022-08-03T06:47:34;3.17;;;2.30;;
13580;SDS011;6861;46.170;7.222;2022-08-03T06:50:01;4.72;;;2.08;;
13580;SDS011;6861;46.170;7.222;2022-08-03T06:52:28;2.40;;;2.05;;
13580;SDS011;6861;46.170;7.222;2022-08-03T06:54:55;3.85;;;2.38;;
13580;SDS011;6861;46.170;7.222;2022-08-03T06:57:22;2.88;;;2.10;;
13580;SDS011;6861;46.170;7.222;2022-08-03T06:59:49;4.30;;;2.25;;
13580;SDS011;6861;46.170;7.222;2022-08-03T07:02:16;3.97;;;2.30;;
13580;SDS011;6861;46.170;7.222;2022-08-03T07:04:45;3.50;;;1.98;;
13580;SDS011;6861;46.170;7.222;2022-08-03T07:07:12;5.32;;;2.25;;
13580;SDS011;6861;46.170;7.222;2022-08-03T07:09:39;2.55;;;2.00;;
13580;SDS011;6861;46.170;7.222;2022-08-03T07:12:06;2.58;;;1.90;;
13580;SDS011;6861;46.170;7.222;2022-08-03T07:14:34;2.90;;;1.83;;
13580;SDS011;6861;46.170;7.222;2022-08-03T07:17:00;2.10;;;1.92;;
13580;SDS011;6861;46.170;7.222;2022-08-03T07:19:27;4.72;;;2.20;;
13580;SDS011;6861;46.170;7.222;2022-08-03T07:21:55;2.63;;;2.00;;
13580;SDS011;6861;46.170;7.222;2022-08-03T07:24:23;3.15;;;2.25;;
13580;SDS011;6861;46.170;7.222;2022-08-03T07:26:50;3.60;;;2.47;;
13580;SDS011;6861;46.170;7.222;2022-08-03T07:29:16;4.38;;;2.85;;
13580;SDS011;6861;46.170;7.222;2022-08-03T07:31:43;2.15;;;1.80;;
13580;SDS011;6861;46.170;7.222;2022-08-03T07:34:11;3.60;;;2.28;;
13580;SDS011;6861;46.170;7.222;2022-08-03T07:36:38;3.75;;;1.95;;
13580;SDS011;6861;46.170;7.222;2022-08-03T07:39:06;2.47;;;1.88;;
13580;SDS011;6861;46.170;7.222;2022-08-03T07:41:33;3.20;;;2.38;;
13580;SDS011;6861;46.170;7.222;2022-08-03T07:44:00;2.67;;;1.98;;
13580;SDS011;6861;46.170;7.222;2022-08-03T07:46:27;4.60;;;2.33;;
13580;SDS011;6861;46.170;7.222;2022-08-03T07:48:54;2.58;;;1.90;;
13580;SDS011;6861;46.170;7.222;2022-08-03T07:51:21;2.20;;;2.00;;
13580;SDS011;6861;46.170;7.222;2022-08-03T07:53:48;2.30;;;2.03;;
13580;SDS011;6861;46.170;7.222;2022-08-03T07:56:16;2.95;;;2.00;;
13580;SDS011;6861;46.170;7.222;2022-08-03T07:58:44;2.10;;;1.77;;
13580;SDS011;6861;46.170;7.222;2022-08-03T08:01:10;2.78;;;2.00;;
13580;SDS011;6861;46.170;7.222;2022-08-03T08:03:38;3.75;;;2.10;;
13580;SDS011;6861;46.170;7.222;2022-08-03T08:06:05;2.42;;;2.00;;
13580;SDS011;6861;46.170;7.222;2022-08-03T08:08:32;2.30;;;2.10;;
13580;SDS011;6861;46.170;7.222;2022-08-03T08:10:59;2.67;;;1.77;;
13580;SDS011;6861;46.170;7.222;2022-08-03T08:13:27;3.38;;;1.98;;
13580;SDS011;6861;46.170;7.222;2022-08-03T08:15:54;3.47;;;2.20;;
13580;SDS011;6861;46.170;7.222;2022-08-03T08:18:21;2.75;;;1.75;;
13580;SDS011;6861;46.170;7.222;2022-08-03T08:20:49;3.55;;;2.17;;
13580;SDS011;6861;46.170;7.222;2022-08-03T08:23:16;2.35;;;2.05;;
13580;SDS011;6861;46.170;7.222;2022-08-03T08:25:47;1.95;;;1.70;;
13580;SDS011;6861;46.170;7.222;2022-08-03T08:28:16;2.30;;;1.92;;
13580;SDS011;6861;46.170;7.222;2022-08-03T08:30:44;2.10;;;1.88;;
13580;SDS011;6861;46.170;7.222;2022-08-03T08:33:11;2.05;;;1.83;;
13580;SDS011;6861;46.170;7.222;2022-08-03T08:35:39;2.53;;;2.05;;
13580;SDS011;6861;46.170;7.222;2022-08-03T08:38:06;2.92;;;1.90;;
13580;SDS011;6861;46.170;7.222;2022-08-03T08:40:33;2.40;;;1.98;;
13580;SDS011;6861;46.170;7.222;2022-08-03T08:43:00;4.20;;;1.88;;
13580;SDS011;6861;46.170;7.222;2022-08-03T08:45:28;2.42;;;2.13;;
13580;SDS011;6861;46.170;7.222;2022-08-03T08:47:56;2.20;;;2.00;;
13580;SDS011;6861;46.170;7.222;2022-08-03T08:50:26;2.55;;;2.35;;
13580;SDS011;6861;46.170;7.222;2022-08-03T08:52:54;2.83;;;2.40;;
13580;SDS011;6861;46.170;7.222;2022-08-03T08:55:25;4.10;;;2.00;;
13580;SDS011;6861;46.170;7.222;2022-08-03T08:57:54;2.53;;;2.20;;
13580;SDS011;6861;46.170;7.222;2022-08-03T09:00:27;2.55;;;2.15;;
13580;SDS011;6861;46.170;7.222;2022-08-03T09:02:55;2.45;;;1.90;;
13580;SDS011;6861;46.170;7.222;2022-08-03T09:05:23;3.38;;;2.30;;
13580;SDS011;6861;46.170;7.222;2022-08-03T09:07:50;2.35;;;1.83;;
13580;SDS011;6861;46.170;7.222;2022-08-03T09:10:18;3.28;;;2.17;;
13580;SDS011;6861;46.170;7.222;2022-08-03T09:12:46;3.58;;;1.92;;
13580;SDS011;6861;46.170;7.222;2022-08-03T09:15:16;2.47;;;2.00;;
13580;SDS011;6861;46.170;7.222;2022-08-03T09:17:44;1.85;;;1.75;;
13580;SDS011;6861;46.170;7.222;2022-08-03T09:20:13;3.72;;;1.75;;
13580;SDS011;6861;46.170;7.222;2022-08-03T09:22:54;2.00;;;1.90;;
13580;SDS011;6861;46.170;7.222;2022-08-03T09:25:26;1.80;;;1.70;;
13580;SDS011;6861;46.170;7.222;2022-08-03T09:27:55;3.03;;;1.77;;
13580;SDS011;6861;46.170;7.222;2022-08-03T09:30:30;2.30;;;1.92;;
13580;SDS011;6861;46.170;7.222;2022-08-03T09:32:59;2.30;;;2.00;;
13580;SDS011;6861;46.170;7.222;2022-08-03T09:35:27;2.13;;;1.80;;
13580;SDS011;6861;46.170;7.222;2022-08-03T09:38:10;3.10;;;2.08;;
13580;SDS011;6861;46.170;7.222;2022-08-03T09:40:38;2.38;;;2.13;;
13580;SDS011;6861;46.170;7.222;2022-08-03T09:43:06;3.47;;;2.00;;
13580;SDS011;6861;46.170;7.222;2022-08-03T09:45:33;2.83;;;1.80;;
13580;SDS011;6861;46.170;7.222;2022-08-03T09:48:19;2.08;;;1.88;;
13580;SDS011;6861;46.170;7.222;2022-08-03T09:50:49;3.83;;;1.90;;
13580;SDS011;6861;46.170;7.222;2022-08-03T09:53:17;2.10;;;1.90;;
13580;SDS011;6861;46.170;7.222;2022-08-03T09:55:51;1.90;;;1.70;;
13580;SDS011;6861;46.170;7.222;2022-08-03T09:58:22;2.53;;;1.83;;
13580;SDS011;6861;46.170;7.222;2022-08-03T10:00:56;3.35;;;2.13;;
13580;SDS011;6861;46.170;7.222;2022-08-03T10:03:25;2.13;;;1.80;;
13580;SDS011;6861;46.170;7.222;2022-08-03T10:05:55;2.70;;;2.00;;
13580;SDS011;6861;46.170;7.222;2022-08-03T10:08:22;2.47;;;1.73;;
13580;SDS011;6861;46.170;7.222;2022-08-03T10:10:50;2.53;;;1.90;;
13580;SDS011;6861;46.170;7.222;2022-08-03T10:13:20;1.80;;;1.65;;
13580;SDS011;6861;46.170;7.222;2022-08-03T10:15:47;2.55;;;2.08;;
13580;SDS011;6861;46.170;7.222;2022-08-03T10:18:15;3.05;;;1.83;;
13580;SDS011;6861;46.170;7.222;2022-08-03T10:20:43;3.13;;;1.88;;
13580;SDS011;6861;46.170;7.222;2022-08-03T10:23:13;1.92;;;1.73;;
13580;SDS011;6861;46.170;7.222;2022-08-03T10:25:44;1.92;;;1.80;;
13580;SDS011;6861;46.170;7.222;2022-08-03T10:28:14;2.80;;;1.75;;
13580;SDS011;6861;46.170;7.222;2022-08-03T10:30:46;1.77;;;1.67;;
13580;SDS011;6861;46.170;7.222;2022-08-03T10:33:16;2.42;;;1.70;;
13580;SDS011;6861;46.170;7.222;2022-08-03T10:35:46;2.33;;;1.90;;
13580;SDS011;6861;46.170;7.222;2022-08-03T10:38:18;1.98;;;1.73;;
13580;SDS011;6861;46.170;7.222;2022-08-03T10:40:47;2.13;;;1.90;;
13580;SDS011;6861;46.170;7.222;2022-08-03T10:43:19;2.50;;;1.90;;
13580;SDS011;6861;46.170;7.222;2022-08-03T10:45:47;2.63;;;1.75;;
13580;SDS011;6861;46.170;7.222;2022-08-03T10:48:16;2.55;;;1.95;;
13580;SDS011;6861;46.170;7.222;2022-08-03T10:50:45;2.22;;;2.03;;
13580;SDS011;6861;46.170;7.222;2022-08-03T10:53:14;4.00;;;2.00;;
13580;SDS011;6861;46.170;7.222;2022-08-03T10:55:42;2.15;;;1.95;;
13580;SDS011;6861;46.170;7.222;2022-08-03T11:04:17;2.00;;;1.88;;
13580;SDS011;6861;46.170;7.222;2022-08-03T11:06:45;4.10;;;2.10;;
13580;SDS011;6861;46.170;7.222;2022-08-03T11:09:13;3.90;;;1.98;;
13580;SDS011;6861;46.170;7.222;2022-08-03T11:11:44;2.40;;;2.10;;
13580;SDS011;6861;46.170;7.222;2022-08-03T11:14:13;2.42;;;2.20;;
13580;SDS011;6861;46.170;7.222;2022-08-03T11:16:42;2.17;;;1.90;;
13580;SDS011;6861;46.170;7.222;2022-08-03T11:19:12;2.90;;;1.83;;
13580;SDS011;6861;46.170;7.222;2022-08-03T11:21:53;5.13;;;1.90;;
13580;SDS011;6861;46.170;7.222;2022-08-03T11:27:30;3.55;;;2.00;;
13580;SDS011;6861;46.170;7.222;2022-08-03T11:29:59;3.55;;;1.67;;
13580;SDS011;6861;46.170;7.222;2022-08-03T11:35:23;5.53;;;1.83;;
13580;SDS011;6861;46.170;7.222;2022-08-03T11:38:01;2.10;;;1.50;;
13580;SDS011;6861;46.170;7.222;2022-08-03T11:40:36;2.15;;;1.70;;
13580;SDS011;6861;46.170;7.222;2022-08-03T11:43:06;3.13;;;1.70;;
13580;SDS011;6861;46.170;7.222;2022-08-03T11:45:35;3.45;;;1.98;;
13580;SDS011;6861;46.170;7.222;2022-08-03T11:48:11;2.35;;;1.80;;
13580;SDS011;6861;46.170;7.222;2022-08-03T11:50:41;2.10;;;1.55;;
13580;SDS011;6861;46.170;7.222;2022-08-03T11:53:12;2.70;;;1.70;;
13580;SDS011;6861;46.170;7.222;2022-08-03T11:55:42;3.00;;;1.42;;
13580;SDS011;6861;46.170;7.222;2022-08-03T11:58:18;1.95;;;1.70;;
13580;SDS011;6861;46.170;7.222;2022-08-03T12:00:45;2.05;;;1.63;;
13580;SDS011;6861;46.170;7.222;2022-08-03T12:03:14;2.30;;;1.40;;
13580;SDS011;6861;46.170;7.222;2022-08-03T12:05:43;2.00;;;1.50;;
13580;SDS011;6861;46.170;7.222;2022-08-03T12:08:12;3.90;;;1.70;;
13580;SDS011;6861;46.170;7.222;2022-08-03T12:10:45;3.70;;;1.70;;
13580;SDS011;6861;46.170;7.222;2022-08-03T12:13:15;3.80;;;1.45;;
13580;SDS011;6861;46.170;7.222;2022-08-03T12:15:48;2.42;;;1.50;;
13580;SDS011;6861;46.170;7.222;2022-08-03T12:18:17;2.22;;;1.38;;
13580;SDS011;6861;46.170;7.222;2022-08-03T12:20:46;3.30;;;1.50;;
13580;SDS011;6861;46.170;7.222;2022-08-03T12:23:13;2.22;;;1.60;;
13580;SDS011;6861;46.170;7.222;2022-08-03T12:25:41;3.58;;;1.60;;
13580;SDS011;6861;46.170;7.222;2022-08-03T12:28:12;1.70;;;1.60;;
13580;SDS011;6861;46.170;7.222;2022-08-03T12:30:44;2.88;;;1.50;;
13580;SDS011;6861;46.170;7.222;2022-08-03T12:33:20;5.22;;;1.65;;
13580;SDS011;6861;46.170;7.222;2022-08-03T12:35:50;2.00;;;1.50;;
13580;SDS011;6861;46.170;7.222;2022-08-03T12:38:29;3.10;;;1.50;;
13580;SDS011;6861;46.170;7.222;2022-08-03T12:41:01;2.28;;;1.55;;
13580;SDS011;6861;46.170;7.222;2022-08-03T12:43:29;2.10;;;1.50;;
13580;SDS011;6861;46.170;7.222;2022-08-03T12:46:11;3.00;;;1.60;;
13580;SDS011;6861;46.170;7.222;2022-08-03T12:48:58;2.95;;;1.50;;
13580;SDS011;6861;46.170;7.222;2022-08-03T12:51:31;1.55;;;1.45;;
13580;SDS011;6861;46.170;7.222;2022-08-03T12:53:59;2.63;;;1.50;;
13580;SDS011;6861;46.170;7.222;2022-08-03T12:56:25;1.80;;;1.38;;
13580;SDS011;6861;46.170;7.222;2022-08-03T12:58:53;3.15;;;1.52;;
13580;SDS011;6861;46.170;7.222;2022-08-03T13:01:21;2.33;;;1.80;;
13580;SDS011;6861;46.170;7.222;2022-08-03T13:03:51;1.70;;;1.27;;
13580;SDS011;6861;46.170;7.222;2022-08-03T13:06:20;2.20;;;1.50;;
13580;SDS011;6861;46.170;7.222;2022-08-03T13:08:48;4.75;;;1.70;;
13580;SDS011;6861;46.170;7.222;2022-08-03T13:11:26;1.58;;;1.20;;
13580;SDS011;6861;46.170;7.222;2022-08-03T13:13:54;2.55;;;1.60;;
13580;SDS011;6861;46.170;7.222;2022-08-03T13:16:22;9.93;;;1.77;;
13580;SDS011;6861;46.170;7.222;2022-08-03T13:18:50;1.60;;;1.25;;
13580;SDS011;6861;46.170;7.222;2022-08-03T13:21:19;2.53;;;1.40;;
13580;SDS011;6861;46.170;7.222;2022-08-03T13:23:46;3.35;;;1.50;;
13580;SDS011;6861;46.170;7.222;2022-08-03T13:26:14;2.75;;;1.33;;
13580;SDS011;6861;46.170;7.222;2022-08-03T13:28:41;4.07;;;1.50;;
13580;SDS011;6861;46.170;7.222;2022-08-03T13:31:08;2.33;;;1.67;;
13580;SDS011;6861;46.170;7.222;2022-08-03T13:33:36;3.13;;;1.58;;
13580;SDS011;6861;46.170;7.222;2022-08-03T13:36:04;1.50;;;1.30;;
13580;SDS011;6861;46.170;7.222;2022-08-03T13:38:32;2.53;;;1.45;;
13580;SDS011;6861;46.170;7.222;2022-08-03T13:40:59;2.08;;;1.50;;
13580;SDS011;6861;46.170;7.222;2022-08-03T13:43:27;2.60;;;1.50;;
13580;SDS011;6861;46.170;7.222;2022-08-03T13:45:54;1.75;;;1.50;;
13580;SDS011;6861;46.170;7.222;2022-08-03T13:48:21;2.80;;;1.45;;
13580;SDS011;6861;46.170;7.222;2022-08-03T13:50:50;3.40;;;1.60;;
13580;SDS011;6861;46.170;7.222;2022-08-03T13:53:16;3.17;;;1.42;;
13580;SDS011;6861;46.170;7.222;2022-08-03T13:55:43;1.42;;;1.23;;
13580;SDS011;6861;46.170;7.222;2022-08-03T13:58:10;2.03;;;1.42;;
13580;SDS011;6861;46.170;7.222;2022-08-03T14:00:37;2.13;;;1.48;;
13580;SDS011;6861;46.170;7.222;2022-08-03T14:03:05;2.65;;;1.58;;
13580;SDS011;6861;46.170;7.222;2022-08-03T14:05:32;2.38;;;1.48;;
13580;SDS011;6861;46.170;7.222;2022-08-03T14:08:01;2.38;;;1.60;;
13580;SDS011;6861;46.170;7.222;2022-08-03T14:10:29;2.72;;;1.30;;
13580;SDS011;6861;46.170;7.222;2022-08-03T14:12:56;2.22;;;1.40;;
13580;SDS011;6861;46.170;7.222;2022-08-03T14:15:24;1.52;;;1.42;;
13580;SDS011;6861;46.170;7.222;2022-08-03T14:17:52;1.83;;;1.40;;
13580;SDS011;6861;46.170;7.222;2022-08-03T14:20:20;2.97;;;1.48;;
13580;SDS011;6861;46.170;7.222;2022-08-03T14:22:47;2.13;;;1.27;;
13580;SDS011;6861;46.170;7.222;2022-08-03T14:25:15;1.75;;;1.65;;
13580;SDS011;6861;46.170;7.222;2022-08-03T14:27:42;2.30;;;1.40;;
13580;SDS011;6861;46.170;7.222;2022-08-03T14:30:09;1.60;;;1.50;;
13580;SDS011;6861;46.170;7.222;2022-08-03T14:32:38;2.45;;;1.50;;
13580;SDS011;6861;46.170;7.222;2022-08-03T14:35:05;2.38;;;1.50;;
13580;SDS011;6861;46.170;7.222;2022-08-03T14:37:32;1.90;;;1.45;;
13580;SDS011;6861;46.170;7.222;2022-08-03T14:39:59;1.30;;;1.20;;
13580;SDS011;6861;46.170;7.222;2022-08-03T14:42:28;1.90;;;1.40;;
13580;SDS011;6861;46.170;7.222;2022-08-03T14:44:55;2.28;;;1.40;;
13580;SDS011;6861;46.170;7.222;2022-08-03T14:47:22;2.65;;;1.50;;
13580;SDS011;6861;46.170;7.222;2022-08-03T14:49:48;3.05;;;1.40;;
13580;SDS011;6861;46.170;7.222;2022-08-03T14:52:15;5.15;;;2.20;;
13580;SDS011;6861;46.170;7.222;2022-08-03T14:54:43;4.93;;;1.50;;
13580;SDS011;6861;46.170;7.222;2022-08-03T14:57:10;1.50;;;1.40;;
13580;SDS011;6861;46.170;7.222;2022-08-03T14:59:39;2.67;;;1.30;;
13580;SDS011;6861;46.170;7.222;2022-08-03T15:02:05;3.10;;;1.67;;
13580;SDS011;6861;46.170;7.222;2022-08-03T15:04:33;4.30;;;1.52;;
13580;SDS011;6861;46.170;7.222;2022-08-03T15:07:00;3.58;;;1.30;;
13580;SDS011;6861;46.170;7.222;2022-08-03T15:09:26;3.72;;;1.60;;
13580;SDS011;6861;46.170;7.222;2022-08-03T15:11:53;2.03;;;1.50;;
13580;SDS011;6861;46.170;7.222;2022-08-03T15:14:20;2.00;;;1.38;;
13580;SDS011;6861;46.170;7.222;2022-08-03T15:16:48;1.77;;;1.45;;
13580;SDS011;6861;46.170;7.222;2022-08-03T15:19:15;2.38;;;1.60;;
13580;SDS011;6861;46.170;7.222;2022-08-03T15:21:42;3.42;;;1.60;;
13580;SDS011;6861;46.170;7.222;2022-08-03T15:24:09;2.35;;;1.30;;
13580;SDS011;6861;46.170;7.222;2022-08-03T15:26:36;1.58;;;1.45;;
13580;SDS011;6861;46.170;7.222;2022-08-03T15:29:03;1.42;;;1.20;;